createdAt,value
2022-08-21T00:00:33.451Z,10.26
2022-08-21T00:01:33.419Z,10.34
2022-08-21T00:02:33.457Z,10.42
2022-08-21T00:03:33.399Z,10.51
2022-08-21T00:04:33.411Z,10.58
2022-08-21T00:05:33.425Z,10.59
2022-08-21T00:06:33.332Z,10.58
2022-08-21T00:07:33.332Z,10.51
2022-08-21T00:08:33.295Z,10.40
2022-08-21T00:09:33.292Z,10.26
2022-08-21T00:10:33.303Z,10.15
2022-08-21T00:11:33.285Z,10.01
2022-08-21T00:12:33.252Z,9.94
2022-08-21T00:13:33.234Z,9.93
2022-08-21T00:14:33.253Z,9.88
2022-08-21T00:15:33.215Z,9.83
2022-08-21T00:16:33.183Z,9.75
2022-08-21T00:17:33.184Z,9.68
2022-08-21T00:18:33.194Z,9.66
2022-08-21T00:19:33.170Z,9.64
2022-08-21T00:20:33.155Z,9.60
2022-08-21T00:21:33.188Z,9.60
2022-08-21T00:22:33.115Z,9.61
2022-08-21T00:23:33.117Z,9.68
2022-08-21T00:24:33.108Z,9.70
2022-08-21T00:25:33.065Z,9.73
2022-08-21T00:26:33.088Z,9.76
2022-08-21T00:27:33.045Z,9.83
2022-08-21T00:28:33.073Z,9.89
2022-08-21T00:29:33.007Z,9.99
2022-08-21T00:30:32.996Z,10.04
2022-08-21T00:31:32.976Z,10.10
2022-08-21T00:32:32.971Z,10.12
2022-08-21T00:33:32.970Z,10.19
2022-08-21T00:34:32.987Z,10.25
2022-08-21T00:35:33.236Z,10.34
2022-08-21T00:36:32.906Z,10.47
2022-08-21T00:37:35.207Z,10.60
2022-08-21T00:38:32.872Z,10.73
2022-08-21T00:39:32.868Z,10.77
2022-08-21T00:40:32.849Z,10.76
2022-08-21T00:41:38.421Z,10.80
2022-08-21T00:42:33.869Z,10.91
2022-08-21T00:43:32.799Z,10.98
2022-08-21T00:44:32.810Z,11.03
2022-08-21T00:45:32.813Z,11.03
2022-08-21T00:46:32.769Z,11.07
2022-08-21T00:47:32.753Z,11.09
2022-08-21T00:48:32.755Z,11.10
2022-08-21T00:49:32.739Z,11.11
2022-08-21T00:50:32.711Z,11.10
2022-08-21T00:51:32.709Z,11.13
2022-08-21T00:52:33.682Z,11.19
2022-08-21T00:53:32.662Z,11.25
2022-08-21T00:54:32.652Z,11.28
2022-08-21T00:55:32.684Z,11.28
2022-08-21T00:56:32.645Z,11.25
2022-08-21T00:57:32.620Z,11.17
2022-08-21T00:58:32.599Z,11.13
2022-08-21T00:59:32.572Z,11.13
2022-08-21T01:00:32.563Z,11.10
2022-08-21T01:01:32.609Z,11.07
2022-08-21T01:02:32.554Z,11.07
2022-08-21T01:03:32.531Z,11.02
2022-08-21T01:04:32.506Z,10.94
2022-08-21T01:05:32.556Z,10.88
2022-08-21T01:06:32.485Z,10.81
2022-08-21T01:07:32.504Z,10.77
2022-08-21T01:08:32.457Z,10.71
2022-08-21T01:09:32.468Z,10.66
2022-08-21T01:10:32.446Z,10.63
2022-08-21T01:11:32.406Z,10.59
2022-08-21T01:12:32.400Z,10.56
2022-08-21T01:13:32.414Z,10.55
2022-08-21T01:14:32.362Z,10.55
2022-08-21T01:15:32.376Z,10.56
2022-08-21T01:16:32.356Z,10.58
2022-08-21T01:17:32.347Z,10.56
2022-08-21T01:18:32.387Z,10.56
2022-08-21T01:19:32.299Z,10.59
2022-08-21T01:20:33.028Z,10.70
2022-08-21T01:21:32.288Z,10.80
2022-08-21T01:22:32.258Z,10.94
2022-08-21T01:23:32.248Z,11.03
2022-08-21T01:24:32.248Z,11.09
2022-08-21T01:25:32.248Z,11.11
2022-08-21T01:26:34.351Z,11.09
2022-08-21T01:27:32.179Z,11.09
2022-08-21T01:28:32.185Z,11.10
2022-08-21T01:29:32.174Z,11.07
2022-08-21T01:30:32.159Z,11.02
2022-08-21T01:31:32.121Z,10.98
2022-08-21T01:32:32.119Z,10.92
2022-08-21T01:33:32.099Z,10.86
2022-08-21T01:34:32.100Z,10.81
2022-08-21T01:35:32.093Z,10.81
2022-08-21T01:36:32.074Z,10.81
2022-08-21T01:37:32.063Z,10.83
2022-08-21T01:38:32.072Z,10.83
2022-08-21T01:39:32.031Z,10.84
2022-08-21T01:40:32.048Z,10.84
2022-08-21T01:41:31.982Z,10.83
2022-08-21T01:42:31.973Z,10.81
2022-08-21T01:43:39.202Z,10.77
2022-08-21T01:44:32.967Z,10.77
2022-08-21T01:45:31.952Z,10.74
2022-08-21T01:46:31.945Z,10.74
2022-08-21T01:47:31.893Z,10.73
2022-08-21T01:48:31.924Z,10.71
2022-08-21T01:49:31.901Z,10.66
2022-08-21T01:50:31.854Z,10.63
2022-08-21T01:51:31.839Z,10.60
2022-08-21T01:52:31.847Z,10.59
2022-08-21T01:53:33.406Z,10.58
2022-08-21T01:54:31.835Z,10.56
2022-08-21T01:55:31.777Z,10.56
2022-08-21T01:56:31.765Z,10.56
2022-08-21T01:57:31.772Z,10.58
2022-08-21T01:58:31.770Z,10.58
2022-08-21T01:59:31.747Z,10.58
2022-08-21T02:00:31.726Z,10.55
2022-08-21T02:01:31.686Z,10.53
2022-08-21T02:02:31.733Z,10.53
2022-08-21T02:03:35.245Z,10.53
2022-08-21T02:04:31.675Z,10.53
2022-08-21T02:05:31.680Z,10.58
2022-08-21T02:06:31.716Z,10.59
2022-08-21T02:07:31.658Z,10.58
2022-08-21T02:08:31.621Z,10.55
2022-08-21T02:09:31.614Z,10.52
2022-08-21T02:10:31.579Z,10.53
2022-08-21T02:11:31.549Z,10.55
2022-08-21T02:12:31.565Z,10.58
2022-08-21T02:13:31.559Z,10.63
2022-08-21T02:14:33.003Z,10.62
2022-08-21T02:15:31.558Z,10.60
2022-08-21T02:16:31.499Z,10.60
2022-08-21T02:17:31.482Z,10.59
2022-08-21T02:18:31.500Z,10.56
2022-08-21T02:19:31.461Z,10.56
2022-08-21T02:20:32.422Z,10.55
2022-08-21T02:21:31.420Z,10.55
2022-08-21T02:22:31.423Z,10.52
2022-08-21T02:23:31.411Z,10.56
2022-08-21T02:24:31.372Z,10.60
2022-08-21T02:25:31.349Z,10.62
2022-08-21T02:26:31.350Z,10.60
2022-08-21T02:27:31.341Z,10.56
2022-08-21T02:28:31.342Z,10.52
2022-08-21T02:29:31.332Z,10.51
2022-08-21T02:30:31.292Z,10.46
2022-08-21T02:31:31.253Z,10.42
2022-08-21T02:32:31.263Z,10.37
2022-08-21T02:33:31.282Z,10.36
2022-08-21T02:34:31.223Z,10.30
2022-08-21T02:35:31.207Z,10.28
2022-08-21T02:36:31.212Z,10.24
2022-08-21T02:37:31.185Z,10.19
2022-08-21T02:38:31.186Z,10.15
2022-08-21T02:39:31.194Z,10.14
2022-08-21T02:40:31.155Z,10.15
2022-08-21T02:41:31.116Z,10.17
2022-08-21T02:42:31.225Z,10.21
2022-08-21T02:43:31.085Z,10.28
2022-08-21T02:44:34.393Z,10.32
2022-08-21T02:45:31.076Z,10.28
2022-08-21T02:46:31.065Z,10.28
2022-08-21T02:47:31.114Z,10.24
2022-08-21T02:48:31.056Z,10.19
2022-08-21T02:49:30.989Z,10.19
2022-08-21T02:50:30.987Z,10.22
2022-08-21T02:51:30.994Z,10.22
2022-08-21T02:52:30.988Z,10.22
2022-08-21T02:53:30.937Z,10.22
2022-08-21T02:54:30.937Z,10.19
2022-08-21T02:55:30.927Z,10.17
2022-08-21T02:56:31.523Z,10.15
2022-08-21T02:57:30.908Z,10.12
2022-08-21T02:58:30.888Z,10.10
2022-08-21T02:59:30.880Z,10.14
2022-08-21T03:00:30.865Z,10.17
2022-08-21T03:01:30.903Z,10.15
2022-08-21T03:02:30.861Z,10.15
2022-08-21T03:03:30.820Z,10.15
2022-08-21T03:04:30.800Z,10.14
2022-08-21T05:19:34.298Z,12.62
2022-08-21T05:20:31.250Z,12.67
2022-08-21T05:21:31.241Z,12.69
2022-08-21T05:22:31.192Z,12.74
2022-08-21T05:23:31.193Z,12.77
2022-08-21T05:24:31.208Z,12.79
2022-08-21T05:25:31.171Z,12.84
2022-08-21T05:26:31.127Z,12.87
2022-08-21T05:27:31.579Z,12.92
2022-08-21T05:28:31.104Z,12.93
2022-08-21T05:29:31.083Z,12.95
2022-08-21T05:30:31.066Z,13.00
2022-08-21T05:31:31.045Z,13.03
2022-08-21T05:32:31.037Z,13.07
2022-08-21T05:33:31.060Z,13.12
2022-08-21T05:34:31.026Z,13.18
2022-08-21T05:35:31.028Z,13.22
2022-08-21T05:36:31.125Z,13.29
2022-08-21T05:37:30.984Z,13.36
2022-08-21T05:38:30.985Z,13.41
2022-08-21T05:40:04.999Z,13.49
2022-08-21T05:40:31.986Z,13.58
2022-08-21T05:41:30.916Z,13.67
2022-08-21T05:42:30.906Z,13.76
2022-08-21T05:43:31.106Z,13.81
2022-08-21T05:44:30.925Z,13.94
2022-08-21T05:45:41.748Z,14.02
2022-08-21T05:46:31.869Z,14.17
2022-08-21T05:47:30.888Z,14.27
2022-08-21T05:48:30.912Z,14.35
2022-08-21T05:49:30.860Z,14.42
2022-08-21T05:50:33.640Z,14.44
2022-08-21T05:51:31.639Z,14.46
2022-08-21T05:52:30.874Z,14.50
2022-08-21T05:53:30.781Z,14.50
2022-08-21T05:54:31.625Z,14.49
2022-08-21T05:55:33.924Z,14.50
2022-08-21T05:56:30.716Z,14.50
2022-08-21T05:57:31.364Z,14.54
2022-08-21T05:58:30.702Z,14.61
2022-08-21T05:59:31.450Z,14.64
2022-08-21T06:00:31.132Z,14.65
2022-08-21T06:01:31.705Z,14.69
2022-08-21T06:02:31.620Z,14.74
2022-08-21T06:03:31.407Z,14.80
2022-08-21T06:04:30.631Z,14.83
2022-08-21T06:05:36.609Z,14.87
2022-08-21T06:06:31.620Z,14.91
2022-08-21T06:07:30.642Z,14.91
2022-08-21T06:08:30.536Z,14.94
2022-08-21T06:09:30.557Z,14.93
2022-08-21T06:10:30.599Z,14.94
2022-08-21T06:11:31.015Z,14.98
2022-08-21T06:12:31.095Z,15.03
2022-08-21T06:13:30.496Z,15.08
2022-08-21T06:14:31.236Z,15.13
2022-08-21T06:15:31.290Z,15.19
2022-08-21T06:16:31.050Z,15.24
2022-08-21T06:17:30.426Z,15.30
2022-08-21T06:18:30.489Z,15.36
2022-08-21T06:19:31.897Z,15.38
2022-08-21T06:20:30.465Z,15.38
2022-08-21T06:21:30.389Z,15.42
2022-08-21T06:22:30.479Z,15.45
2022-08-21T06:23:31.701Z,15.48
2022-08-21T06:24:30.409Z,15.56
2022-08-21T06:25:30.425Z,15.61
2022-08-21T06:26:30.310Z,15.67
2022-08-21T06:27:30.352Z,15.72
2022-08-21T06:28:30.265Z,15.72
2022-08-21T06:29:30.240Z,15.75
2022-08-21T06:30:31.259Z,15.84
2022-08-21T06:31:30.253Z,15.92
2022-08-21T06:32:31.038Z,15.96
2022-08-21T06:33:32.698Z,16.01
2022-08-21T06:34:30.259Z,16.12
2022-08-21T06:35:30.242Z,16.18
2022-08-21T06:36:30.197Z,16.26
2022-08-21T06:37:30.266Z,16.31
2022-08-21T06:38:30.133Z,16.37
2022-08-21T06:39:30.582Z,16.42
2022-08-21T06:40:30.367Z,16.50
2022-08-21T06:41:30.224Z,16.56
2022-08-21T06:42:31.077Z,16.62
2022-08-21T06:43:39.488Z,16.68
2022-08-21T06:44:31.044Z,16.77
2022-08-21T06:45:32.373Z,16.81
2022-08-21T06:46:30.277Z,16.89
2022-08-21T06:47:30.247Z,17.07
2022-08-21T06:48:30.217Z,17.14
2022-08-21T06:49:29.990Z,17.20
2022-08-21T06:50:30.255Z,17.25
2022-08-21T06:51:29.908Z,17.40
2022-08-21T06:52:30.209Z,17.38
2022-08-21T06:53:29.941Z,17.38
2022-08-21T06:54:29.947Z,17.40
2022-08-21T06:55:30.001Z,17.41
2022-08-21T06:56:29.837Z,17.46
2022-08-21T06:57:30.127Z,17.48
2022-08-21T06:58:29.924Z,17.55
2022-08-21T06:59:30.268Z,17.63
2022-08-21T07:00:30.247Z,17.67
2022-08-21T07:01:29.809Z,17.74
2022-08-21T07:02:29.762Z,17.85
2022-08-21T07:03:29.756Z,18.00
2022-08-21T07:04:29.760Z,18.36
2022-08-21T07:05:29.743Z,18.49
2022-08-21T07:06:29.749Z,18.54
2022-08-21T07:07:29.792Z,18.68
2022-08-21T07:08:29.685Z,19.05
2022-08-21T07:09:29.665Z,19.32
2022-08-21T07:10:29.687Z,19.42
2022-08-21T07:11:29.636Z,19.69
2022-08-21T07:12:29.644Z,19.78
2022-08-21T07:13:29.606Z,20.23
2022-08-21T07:14:29.787Z,20.33
2022-08-21T07:15:29.597Z,20.30
2022-08-21T07:16:29.705Z,20.64
2022-08-21T07:17:29.777Z,20.77
2022-08-21T07:18:29.546Z,20.83
2022-08-21T07:19:29.609Z,20.61
2022-08-21T07:20:29.605Z,20.49
2022-08-21T07:21:29.748Z,20.39
2022-08-21T07:22:29.718Z,20.31
2022-08-21T07:23:29.797Z,20.24
2022-08-21T07:24:29.502Z,20.27
2022-08-21T07:25:29.719Z,20.74
2022-08-21T07:26:29.479Z,21.27
2022-08-21T07:27:31.381Z,21.78
2022-08-21T07:28:29.389Z,21.82
2022-08-21T07:29:29.465Z,21.78
2022-08-21T07:30:29.780Z,21.81
2022-08-21T07:31:29.493Z,22.09
2022-08-21T07:32:29.402Z,22.41
2022-08-21T07:33:29.384Z,22.82
2022-08-21T07:34:29.315Z,22.28
2022-08-21T07:35:29.474Z,21.98
2022-08-21T07:36:29.313Z,21.91
2022-08-21T07:37:29.355Z,22.32
2022-08-21T07:38:29.313Z,22.72
2022-08-21T07:39:29.279Z,22.89
2022-08-21T07:40:29.267Z,23.07
2022-08-21T07:41:29.254Z,23.01
2022-08-21T07:42:29.280Z,23.31
2022-08-21T07:43:29.272Z,23.62
2022-08-21T07:44:29.189Z,23.97
2022-08-21T07:45:29.176Z,24.05
2022-08-21T07:46:29.183Z,24.13
2022-08-21T07:47:41.629Z,24.16
2022-08-21T07:48:30.147Z,24.13
2022-08-21T07:49:31.607Z,24.22
2022-08-21T07:50:29.141Z,24.39
2022-08-21T07:51:29.081Z,24.52
2022-08-21T07:52:31.181Z,24.67
2022-08-21T07:53:29.059Z,24.87
2022-08-21T07:54:33.963Z,24.90
2022-08-21T07:55:30.083Z,24.88
2022-08-21T07:56:29.030Z,25.09
2022-08-21T07:57:29.021Z,25.24
2022-08-21T07:58:29.012Z,25.31
2022-08-21T07:59:29.020Z,25.38
2022-08-21T08:00:29.303Z,25.43
2022-08-21T08:01:29.079Z,25.47
2022-08-21T08:02:29.059Z,25.44
2022-08-21T08:03:29.449Z,25.50
2022-08-21T08:04:28.974Z,25.62
2022-08-21T08:05:28.965Z,25.65
2022-08-21T08:06:28.998Z,25.67
2022-08-21T08:07:28.948Z,25.67
2022-08-21T08:08:28.878Z,25.67
2022-08-21T08:09:28.948Z,25.77
2022-08-21T08:10:28.978Z,25.98
2022-08-21T08:11:28.875Z,26.18
2022-08-21T08:12:28.879Z,26.29
2022-08-21T08:13:28.807Z,26.50
2022-08-21T08:14:31.715Z,26.68
2022-08-21T08:15:28.769Z,26.74
2022-08-21T08:16:28.812Z,26.73
2022-08-21T08:17:28.754Z,26.83
2022-08-21T08:18:28.739Z,26.89
2022-08-21T08:19:28.726Z,26.95
2022-08-21T08:20:28.695Z,26.92
2022-08-21T08:21:28.704Z,26.94
2022-08-21T08:22:28.703Z,26.96
2022-08-21T08:23:28.675Z,27.01
2022-08-21T08:24:28.644Z,27.11
2022-08-21T08:25:32.829Z,27.09
2022-08-21T08:26:29.646Z,27.14
2022-08-21T08:27:28.585Z,27.28
2022-08-21T08:28:28.611Z,27.46
2022-08-21T08:29:28.577Z,27.62
2022-08-21T08:30:32.996Z,27.74
2022-08-21T08:31:28.648Z,27.92
2022-08-21T08:32:28.529Z,28.04
2022-08-21T08:33:28.530Z,28.11
2022-08-21T08:34:28.563Z,28.26
2022-08-21T08:35:28.488Z,28.11
2022-08-21T08:36:28.551Z,28.33
2022-08-21T08:37:34.316Z,28.54
2022-08-21T08:38:29.483Z,28.85
2022-08-21T08:39:29.658Z,28.95
2022-08-21T08:40:28.479Z,29.23
2022-08-21T08:41:30.887Z,29.47
2022-08-21T08:42:33.968Z,29.56
2022-08-21T08:43:30.102Z,29.65
2022-08-21T08:44:30.425Z,29.70
2022-08-21T08:45:28.364Z,29.75
2022-08-21T08:46:28.350Z,29.70
2022-08-21T08:47:28.355Z,29.65
2022-08-21T08:48:28.466Z,29.40
2022-08-21T08:49:28.484Z,29.37
2022-08-21T08:50:28.691Z,29.43
2022-08-21T08:51:28.327Z,29.47
2022-08-21T08:52:28.339Z,29.44
2022-08-21T08:53:28.613Z,29.49
2022-08-21T08:54:28.755Z,28.93
2022-08-21T08:55:28.285Z,29.10
2022-08-21T08:56:28.312Z,28.97
2022-08-21T08:57:28.211Z,28.40
2022-08-21T08:58:28.502Z,28.33
2022-08-21T08:59:28.851Z,28.23
2022-08-21T09:00:29.121Z,27.98
2022-08-21T09:01:28.639Z,28.33
2022-08-21T09:02:28.126Z,28.81
2022-08-21T09:03:28.141Z,29.07
2022-08-21T09:04:28.358Z,29.33
2022-08-21T09:05:28.210Z,28.81
2022-08-21T09:06:28.097Z,28.78
2022-08-21T09:07:28.086Z,28.43
2022-08-21T09:08:28.066Z,28.70
2022-08-21T09:09:28.104Z,28.77
2022-08-21T09:10:28.075Z,28.78
2022-08-21T09:11:28.020Z,27.69
2022-08-21T09:12:28.219Z,27.66
2022-08-21T09:13:28.029Z,27.53
2022-08-21T09:14:28.237Z,26.92
2022-08-21T09:15:28.023Z,26.72
2022-08-21T09:16:28.064Z,27.01
2022-08-21T09:17:28.002Z,27.05
2022-08-21T09:18:28.400Z,26.74
2022-08-21T09:19:27.946Z,26.83
2022-08-21T09:20:27.937Z,27.26
2022-08-21T09:21:28.799Z,27.59
2022-08-21T09:22:27.903Z,27.95
2022-08-21T09:23:28.692Z,28.29
2022-08-21T09:24:29.792Z,28.47
2022-08-21T09:25:27.858Z,28.40
2022-08-21T09:26:28.657Z,28.63
2022-08-21T09:27:28.307Z,28.95
2022-08-21T09:28:28.725Z,29.29
2022-08-21T09:29:28.632Z,29.38
2022-08-21T09:30:27.756Z,29.47
2022-08-21T09:31:27.818Z,29.70
2022-08-21T09:32:36.741Z,29.97
2022-08-21T09:33:28.709Z,30.23
2022-08-21T09:34:27.798Z,30.31
2022-08-21T09:35:28.485Z,30.19
2022-08-21T09:36:28.501Z,30.19
2022-08-21T09:37:27.882Z,30.21
2022-08-21T09:38:28.460Z,30.00
2022-08-21T09:39:27.712Z,29.49
2022-08-21T09:40:29.692Z,28.75
2022-08-21T09:41:28.482Z,28.35
2022-08-21T09:42:28.254Z,27.76
2022-08-21T09:43:27.643Z,27.21
2022-08-21T09:44:27.853Z,27.54
2022-08-21T09:45:28.072Z,27.96
2022-08-21T09:46:28.874Z,28.28
2022-08-21T09:47:27.588Z,28.50
2022-08-21T09:48:32.517Z,28.81
2022-08-21T09:49:30.043Z,29.07
2022-08-21T09:50:28.429Z,29.28
2022-08-21T09:51:27.500Z,29.38
2022-08-21T09:52:27.509Z,29.44
2022-08-21T09:53:27.508Z,29.57
2022-08-21T09:54:27.957Z,29.63
2022-08-21T09:55:27.738Z,29.84
2022-08-21T09:56:27.996Z,29.96
2022-08-21T09:57:27.831Z,29.99
2022-08-21T09:58:28.407Z,30.00
2022-08-21T09:59:30.826Z,30.19
2022-08-21T10:00:28.211Z,30.40
2022-08-21T10:01:27.560Z,30.83
2022-08-21T10:02:27.394Z,31.20
2022-08-21T10:03:27.474Z,31.39
2022-08-21T10:04:27.413Z,31.55
2022-08-21T10:05:28.284Z,31.39
2022-08-21T10:06:27.326Z,31.39
2022-08-21T10:07:27.366Z,31.42
2022-08-21T10:08:27.453Z,31.17
2022-08-21T10:09:27.256Z,30.67
2022-08-21T10:10:27.288Z,30.07
2022-08-21T10:11:27.478Z,29.84
2022-08-21T10:12:27.247Z,29.90
2022-08-21T10:13:27.683Z,29.25
2022-08-21T10:14:27.240Z,29.07
2022-08-21T10:15:27.207Z,28.33
2022-08-21T10:16:27.728Z,27.88
2022-08-21T10:17:27.150Z,27.54
2022-08-21T10:18:27.251Z,27.99
2022-08-21T10:19:27.342Z,27.17
2022-08-21T10:20:27.141Z,26.54
2022-08-21T10:21:27.195Z,26.81
2022-08-21T10:22:27.089Z,27.57
2022-08-21T10:23:29.028Z,27.53
2022-08-21T10:24:30.936Z,27.31
2022-08-21T10:25:27.074Z,27.54
2022-08-21T10:26:27.120Z,28.21
2022-08-21T10:27:27.115Z,28.84
2022-08-21T10:28:27.022Z,29.16
2022-08-21T10:29:27.995Z,29.15
2022-08-21T10:30:27.016Z,29.82
2022-08-21T10:31:27.254Z,30.37
2022-08-21T10:32:27.233Z,30.94
2022-08-21T10:33:27.069Z,31.20
2022-08-21T10:34:26.967Z,30.29
2022-08-21T10:35:26.949Z,29.65
2022-08-21T10:36:26.975Z,30.11
2022-08-21T10:37:26.929Z,29.45
2022-08-21T10:38:48.886Z,28.58
2022-08-21T10:39:36.225Z,29.28
2022-08-21T10:40:27.899Z,29.72
2022-08-21T10:41:26.832Z,30.14
2022-08-21T10:42:28.461Z,30.30
2022-08-21T10:43:26.797Z,29.40
2022-08-21T10:44:26.822Z,29.82
2022-08-21T10:45:26.864Z,29.92
2022-08-21T10:46:27.541Z,30.33
2022-08-21T10:47:26.824Z,29.41
2022-08-21T10:48:26.842Z,29.44
2022-08-21T10:49:26.835Z,28.54
2022-08-21T10:50:26.729Z,28.09
2022-08-21T10:51:29.360Z,28.58
2022-08-21T10:52:26.887Z,29.08
2022-08-21T10:53:26.709Z,29.62
2022-08-21T10:54:26.798Z,29.96
2022-08-21T10:55:26.713Z,30.31
2022-08-21T10:56:26.759Z,30.54
2022-08-21T10:57:32.041Z,30.87
2022-08-21T10:58:28.160Z,30.94
2022-08-21T10:59:26.729Z,31.12
2022-08-21T11:00:26.698Z,31.18
2022-08-21T11:01:28.550Z,31.39
2022-08-21T11:02:26.905Z,31.33
2022-08-21T11:03:26.593Z,31.43
2022-08-21T11:04:30.049Z,31.48
2022-08-21T11:05:28.634Z,31.50
2022-08-21T11:06:26.592Z,31.61
2022-08-21T11:07:26.566Z,31.50
2022-08-21T11:08:26.504Z,31.35
2022-08-21T11:09:26.495Z,31.12
2022-08-21T11:10:26.496Z,31.06
2022-08-21T11:11:28.122Z,31.26
2022-08-21T11:12:28.233Z,31.48
2022-08-21T11:13:31.258Z,31.77
2022-08-21T11:14:27.960Z,31.92
2022-08-21T11:15:29.245Z,31.62
2022-08-21T11:16:26.645Z,31.54
2022-08-21T11:17:26.449Z,31.65
2022-08-21T11:18:26.410Z,31.72
2022-08-21T11:19:26.433Z,31.70
2022-08-21T11:20:26.370Z,31.67
2022-08-21T11:21:26.817Z,31.75
2022-08-21T11:22:26.379Z,31.67
2022-08-21T11:23:26.556Z,31.60
2022-08-21T11:24:26.361Z,31.88
2022-08-21T11:25:26.466Z,32.11
2022-08-21T11:26:27.584Z,32.30
2022-08-21T11:27:26.691Z,32.47
2022-08-21T11:28:26.413Z,32.47
2022-08-21T11:29:26.513Z,32.37
2022-08-21T11:30:26.436Z,32.30
2022-08-21T11:31:26.674Z,32.33
2022-08-21T11:32:26.579Z,32.14
2022-08-21T11:33:26.179Z,32.05
2022-08-21T11:34:26.246Z,32.32
2022-08-21T11:35:26.198Z,32.37
2022-08-21T11:36:26.215Z,32.70
2022-08-21T11:37:26.308Z,32.76
2022-08-21T11:38:26.139Z,32.76
2022-08-21T11:39:26.220Z,32.69
2022-08-21T11:40:26.239Z,32.79
2022-08-21T11:41:26.278Z,32.93
2022-08-21T11:42:26.510Z,32.86
2022-08-21T11:43:26.380Z,33.03
2022-08-21T11:44:26.030Z,33.41
2022-08-21T11:45:28.255Z,33.73
2022-08-21T11:46:26.057Z,33.98
2022-08-21T11:47:26.118Z,34.29
2022-08-21T11:48:26.031Z,34.48
2022-08-21T11:49:26.092Z,34.26
2022-08-21T11:50:34.492Z,34.20
2022-08-21T11:51:27.893Z,34.17
2022-08-21T11:52:26.048Z,33.97
2022-08-21T11:53:26.266Z,34.07
2022-08-21T11:54:25.917Z,34.08
2022-08-21T11:55:25.896Z,34.23
2022-08-21T11:56:26.037Z,34.45
2022-08-21T11:57:26.075Z,34.19
2022-08-21T11:58:25.882Z,33.53
2022-08-21T11:59:25.908Z,33.22
2022-08-21T12:00:25.950Z,32.93
2022-08-21T12:01:25.933Z,33.04
2022-08-21T12:02:26.016Z,33.34
2022-08-21T12:03:25.926Z,34.00
2022-08-21T12:04:26.219Z,34.48
2022-08-21T12:05:25.820Z,34.51
2022-08-21T12:06:25.770Z,34.46
2022-08-21T12:07:25.820Z,34.23
2022-08-21T12:08:25.774Z,34.05
2022-08-21T12:09:25.760Z,34.31
2022-08-21T12:10:25.779Z,34.51
2022-08-21T12:11:30.574Z,34.69
2022-08-21T12:12:26.852Z,34.34
2022-08-21T12:13:40.323Z,33.51
2022-08-21T12:14:27.204Z,32.98
2022-08-21T12:15:25.754Z,31.85
2022-08-21T12:16:25.825Z,31.72
2022-08-21T12:17:25.656Z,30.76
2022-08-21T12:18:25.713Z,29.96
2022-08-21T12:19:26.111Z,29.26
2022-08-21T12:20:25.655Z,28.72
2022-08-21T12:21:25.638Z,28.84
2022-08-21T12:22:25.696Z,29.92
2022-08-21T12:23:26.071Z,30.93
2022-08-21T12:24:27.862Z,31.70
2022-08-21T12:25:25.635Z,32.43
2022-08-21T12:26:25.558Z,31.33
2022-08-21T12:27:25.569Z,30.30
2022-08-21T12:28:25.925Z,30.52
2022-08-21T12:29:25.569Z,31.43
2022-08-21T12:30:27.461Z,32.05
2022-08-21T12:31:25.887Z,32.69
2022-08-21T12:32:25.490Z,33.08
2022-08-21T12:33:25.463Z,33.43
2022-08-21T12:34:25.432Z,33.71
2022-08-21T12:35:25.704Z,34.09
2022-08-21T12:36:25.576Z,34.38
2022-08-21T12:37:25.449Z,34.84
2022-08-21T12:38:25.772Z,35.48
2022-08-21T12:39:25.437Z,35.77
2022-08-21T12:40:25.423Z,35.60
2022-08-21T12:41:25.528Z,35.07
2022-08-21T12:42:25.444Z,34.74
2022-08-21T12:43:26.626Z,34.83
2022-08-21T12:44:25.347Z,34.89
2022-08-21T12:45:25.477Z,34.81
2022-08-21T12:46:25.858Z,34.79
2022-08-21T12:47:25.356Z,34.76
2022-08-21T12:48:25.796Z,34.77
2022-08-21T12:49:26.985Z,34.80
2022-08-21T12:50:25.716Z,34.86
2022-08-21T12:51:25.278Z,33.17
2022-08-21T12:52:25.260Z,31.91
2022-08-21T12:53:25.261Z,30.94
2022-08-21T12:54:26.381Z,30.11
2022-08-21T12:55:25.998Z,29.86
2022-08-21T12:56:26.408Z,29.25
2022-08-21T12:57:30.462Z,28.95
2022-08-21T12:58:27.338Z,29.06
2022-08-21T12:59:38.407Z,29.00
2022-08-21T13:06:16.782Z,27.82
2022-08-21T13:07:14.517Z,28.38
2022-08-21T13:08:14.919Z,28.09
2022-08-21T13:09:14.598Z,27.80
2022-08-21T13:10:15.685Z,28.01
2022-08-21T13:11:15.420Z,28.25
2022-08-21T13:12:14.404Z,28.81
2022-08-21T13:13:14.576Z,29.93
2022-08-21T13:14:15.945Z,31.02
2022-08-21T13:15:14.519Z,31.61
2022-08-21T13:16:14.438Z,32.37
2022-08-21T13:17:16.454Z,33.20
2022-08-21T13:18:15.839Z,33.63
2022-08-21T13:19:14.569Z,33.89
2022-08-21T13:20:14.437Z,34.44
2022-08-21T13:21:14.720Z,34.95
2022-08-21T13:22:33.435Z,35.11
2022-08-21T13:23:16.050Z,35.21
2022-08-21T13:24:38.693Z,35.21
2022-08-21T13:25:15.232Z,35.51
2022-08-21T13:26:18.239Z,35.58
2022-08-21T13:27:14.993Z,34.53
2022-08-21T13:28:14.192Z,33.52
2022-08-21T13:29:14.210Z,32.67
2022-08-21T13:30:14.156Z,31.96
2022-08-21T13:31:14.130Z,32.69
2022-08-21T13:32:14.143Z,33.15
2022-08-21T13:33:14.172Z,33.27
2022-08-21T13:34:14.088Z,33.58
2022-08-21T13:35:14.126Z,33.80
2022-08-21T13:36:14.940Z,33.97
2022-08-21T13:37:14.077Z,33.86
2022-08-21T13:38:14.077Z,33.87
2022-08-21T13:39:14.058Z,34.35
2022-08-21T13:40:14.164Z,34.58
2022-08-21T13:41:14.668Z,34.81
2022-08-21T13:42:19.309Z,35.07
2022-08-21T13:43:21.084Z,33.73
2022-08-21T13:44:24.102Z,33.98
2022-08-21T13:45:17.624Z,33.85
2022-08-21T13:46:13.938Z,34.26
2022-08-21T13:47:13.970Z,34.39
2022-08-21T13:48:13.990Z,34.77
2022-08-21T13:49:13.922Z,34.99
2022-08-21T13:50:13.980Z,35.10
2022-08-21T13:51:13.885Z,35.51
2022-08-21T13:52:13.959Z,35.69
2022-08-21T13:53:13.891Z,35.29
2022-08-21T13:54:13.866Z,34.07
2022-08-21T13:55:13.881Z,32.59
2022-08-21T13:56:14.790Z,31.20
2022-08-21T13:57:14.487Z,31.23
2022-08-21T13:58:15.790Z,31.95
2022-08-21T13:59:13.807Z,31.76
2022-08-21T14:00:13.798Z,32.18
2022-08-21T14:01:13.822Z,31.06
2022-08-21T14:02:13.737Z,30.34
2022-08-21T14:03:13.781Z,29.75
2022-08-21T14:04:14.459Z,29.19
2022-08-21T14:05:13.759Z,28.58
2022-08-21T14:06:13.689Z,28.19
2022-08-21T14:07:13.670Z,29.19
2022-08-21T14:08:13.651Z,30.37
2022-08-21T14:09:13.785Z,31.38
2022-08-21T14:10:14.469Z,32.20
2022-08-21T14:11:13.635Z,32.92
2022-08-21T14:12:13.634Z,31.85
2022-08-21T14:13:14.982Z,31.11
2022-08-21T14:14:13.583Z,30.19
2022-08-21T14:15:13.604Z,29.96
2022-08-21T14:16:13.865Z,29.16
2022-08-21T14:17:25.049Z,28.40
2022-08-21T14:18:14.551Z,27.82
2022-08-21T14:19:13.575Z,27.50
2022-08-21T14:20:13.550Z,27.23
2022-08-21T14:21:13.528Z,27.04
2022-08-21T14:22:14.328Z,26.81
2022-08-21T14:23:13.467Z,26.58
2022-08-21T14:24:14.390Z,26.80
2022-08-21T14:25:13.468Z,27.19
2022-08-21T14:26:13.820Z,28.07
2022-08-21T14:27:13.610Z,27.71
2022-08-21T14:28:17.698Z,27.48
2022-08-21T14:29:15.185Z,27.20
2022-08-21T14:30:13.872Z,27.01
2022-08-21T14:31:13.380Z,26.84
2022-08-21T14:32:21.751Z,26.68
2022-08-21T14:33:14.351Z,26.46
2022-08-21T14:34:19.373Z,26.28
2022-08-21T14:35:14.314Z,26.18
2022-08-21T14:36:13.292Z,27.10
2022-08-21T14:37:13.386Z,27.66
2022-08-21T14:38:13.287Z,27.69
2022-08-21T14:39:13.284Z,27.41
2022-08-21T14:40:13.575Z,27.14
2022-08-21T14:41:13.275Z,26.91
2022-08-21T14:42:13.285Z,26.64
2022-08-21T14:43:13.389Z,26.42
2022-08-21T14:44:13.495Z,26.12
2022-08-21T14:45:13.237Z,26.02
2022-08-21T14:46:14.066Z,25.99
2022-08-21T14:47:13.967Z,25.90
2022-08-21T14:48:13.158Z,26.67
2022-08-21T14:49:13.098Z,27.98
2022-08-21T14:50:13.120Z,29.11
2022-08-21T14:51:13.103Z,30.12
2022-08-21T14:52:13.110Z,30.90
2022-08-21T14:53:13.041Z,31.64
2022-08-21T14:54:13.064Z,32.21
2022-08-21T14:55:13.980Z,32.73
2022-08-21T14:56:13.060Z,33.13
2022-08-21T14:57:13.018Z,33.23
2022-08-21T14:58:13.032Z,33.33
2022-08-21T14:59:13.856Z,33.20
2022-08-21T15:00:13.000Z,33.33
2022-08-21T15:01:13.963Z,33.42
2022-08-21T15:02:13.822Z,33.46
2022-08-21T15:03:12.935Z,33.65
2022-08-21T15:04:12.945Z,33.95
2022-08-21T15:05:13.787Z,34.22
2022-08-21T15:06:12.886Z,34.53
2022-08-21T15:07:12.895Z,34.83
2022-08-21T15:08:13.224Z,35.11
2022-08-21T15:09:13.650Z,34.42
2022-08-21T15:10:13.810Z,33.26
2022-08-21T15:11:17.384Z,32.00
2022-08-21T15:12:13.840Z,31.45
2022-08-21T15:13:13.540Z,31.43